Time;durP1;ratioP1;P1;durP2;ratioP2;P2;SDS_P1;SDS_P2;PMS_P1;PMS_P2;Temp;Humidity;BMP_temperature;BMP_pressure;BME280_temperature;BME280_humidity;BME280_pressure;Samples;Min_cycle;Max_cycle;Signal;HPM_P1;HPM_P2
2022/09/30 00:01:39;;;;;;;8.13;5.43;;;10.20;99.90;;;;;;5134591;27;20414;-73
2022/09/30 00:04:06;;;;;;;11.88;5.72;;;10.30;99.90;;;;;;5151181;27;20047;-72
2022/09/30 00:06:36;;;;;;;7.13;5.50;;;11.30;99.90;;;;;;5116188;27;20081;-72
2022/09/30 00:09:02;;;;;;;8.63;5.90;;;11.20;99.90;;;;;;5134716;27;20092;-72
2022/09/30 00:11:31;;;;;;;7.38;5.60;;;10.20;99.90;;;;;;5116282;27;20354;-73
2022/09/30 00:13:57;;;;;;;8.52;5.40;;;10.10;99.90;;;;;;5133910;27;20061;-72
2022/09/30 00:16:25;;;;;;;10.10;5.72;;;10.80;99.90;;;;;;5134320;27;20051;-72
2022/09/30 00:18:54;;;;;;;12.43;5.68;;;10.60;99.90;;;;;;5116445;27;20490;-72
2022/09/30 00:21:20;;;;;;;9.13;5.57;;;11.10;99.90;;;;;;5134060;27;20500;-72
2022/09/30 00:23:46;;;;;;;10.35;5.70;;;9.90;99.90;;;;;;5116222;27;20039;-72
2022/09/30 00:26:16;;;;;;;7.68;5.25;;;10.00;99.90;;;;;;5134207;27;20096;-73
2022/09/30 00:28:43;;;;;;;8.02;5.45;;;9.80;99.90;;;;;;5134611;27;20044;-73
2022/09/30 00:31:14;;;;;;;7.43;5.88;;;9.80;99.90;;;;;;5132776;27;20387;-73
2022/09/30 00:33:41;;;;;;;8.18;5.50;;;9.80;99.90;;;;;;5134256;27;20126;-72
2022/09/30 00:36:07;;;;;;;7.78;5.45;;;10.10;99.90;;;;;;5133822;27;20047;-73
2022/09/30 00:38:33;;;;;;;7.32;5.82;;;9.70;99.90;;;;;;5134332;27;20039;-73
2022/09/30 00:41:00;;;;;;;7.55;5.78;;;9.60;99.90;;;;;;5133954;27;20130;-73
2022/09/30 00:43:52;;;;;;;7.97;5.93;;;9.60;99.90;;;;;;5133919;27;20039;-73
2022/09/30 00:46:38;;;;;;;9.20;5.70;;;9.50;99.90;;;;;;5115579;27;20080;-73
2022/09/30 00:49:24;;;;;;;7.65;6.03;;;9.40;99.90;;;;;;5134265;27;20039;-72
2022/09/30 00:51:55;;;;;;;9.13;6.13;;;9.40;99.90;;;;;;5133485;27;20133;-72
2022/09/30 00:54:28;;;;;;;7.38;5.85;;;10.10;99.90;;;;;;5133710;27;20046;-72
2022/09/30 00:57:00;;;;;;;9.52;6.18;;;9.30;99.90;;;;;;5132905;27;20575;-72
2022/09/30 00:59:37;;;;;;;9.00;6.00;;;9.30;99.90;;;;;;5133958;27;20039;-72
2022/09/30 01:02:04;;;;;;;11.27;6.25;;;9.50;99.90;;;;;;5148093;27;20066;-72
2022/09/30 01:04:33;;;;;;;9.05;5.80;;;9.40;99.90;;;;;;5131913;27;20114;-73
2022/09/30 01:07:03;;;;;;;8.82;5.97;;;10.20;99.90;;;;;;5131680;27;20046;-73
2022/09/30 01:09:32;;;;;;;8.82;5.90;;;9.40;99.90;;;;;;5139609;27;20114;-72
2022/09/30 01:11:58;;;;;;;8.20;5.95;;;9.60;99.90;;;;;;5132615;27;20462;-73
2022/09/30 01:14:26;;;;;;;8.10;5.97;;;9.40;99.90;;;;;;5133702;27;20375;-73
2022/09/30 01:16:55;;;;;;;7.95;6.03;;;9.40;99.90;;;;;;5132076;27;20123;-72
2022/09/30 01:19:50;;;;;;;10.73;7.03;;;9.40;99.90;;;;;;5133599;27;20047;-72
2022/09/30 01:22:25;;;;;;;9.25;6.43;;;9.50;99.90;;;;;;5133194;27;20048;-73
2022/09/30 01:25:11;;;;;;;9.35;6.30;;;9.50;99.90;;;;;;5114996;27;20055;-73
2022/09/30 01:27:49;;;;;;;9.35;6.57;;;9.50;99.90;;;;;;5114762;28;20160;-73
2022/09/30 01:30:35;;;;;;;10.52;5.95;;;9.50;99.90;;;;;;5133218;28;20057;-73
2022/09/30 01:33:16;;;;;;;;;;;9.60;99.90;;;;;;5115069;28;20488;-73
2022/09/30 01:36:10;;;;;;;11.82;6.90;;;9.60;99.90;;;;;;5132915;28;19929;-72
2022/09/30 01:38:57;;;;;;;9.18;6.43;;;9.70;99.90;;;;;;5132226;28;20086;-72
2022/09/30 01:41:41;;;;;;;11.25;7.10;;;9.70;99.90;;;;;;5133226;28;20068;-72
2022/09/30 01:44:42;;;;;;;7.70;5.93;;;9.70;99.90;;;;;;5133368;28;20130;-73
2022/09/30 01:47:12;;;;;;;6.97;5.32;;;9.70;99.90;;;;;;5114858;28;20074;-72
2022/09/30 01:49:50;;;;;;;7.03;5.65;;;9.70;99.90;;;;;;5114622;28;20047;-72
2022/09/30 01:52:23;;;;;;;7.68;5.63;;;9.70;99.90;;;;;;5132059;28;20094;-72
2022/09/30 01:55:34;;;;;;;7.07;5.65;;;10.30;99.90;;;;;;5133063;28;20242;-72
2022/09/30 01:58:29;;;;;;;9.38;5.35;;;9.60;99.90;;;;;;5109528;27;20495;-72
2022/09/30 02:00:59;;;;;;;9.55;5.90;;;9.50;99.90;;;;;;5148592;27;20071;-73
2022/09/30 02:03:36;;;;;;;7.57;6.00;;;9.40;99.90;;;;;;5139403;27;20047;-72
2022/09/30 02:06:07;;;;;;;7.82;5.70;;;9.30;99.90;;;;;;5133340;28;20051;-72
2022/09/30 02:08:49;;;;;;;7.15;5.63;;;9.40;99.90;;;;;;5133066;28;20446;-73
2022/09/30 02:11:20;;;;;;;8.02;5.65;;;9.20;99.90;;;;;;5132740;28;20196;-73
2022/09/30 02:14:22;;;;;;;8.27;5.97;;;9.70;99.90;;;;;;5114578;28;20054;-73
2022/09/30 02:17:14;;;;;;;8.10;5.70;;;9.10;99.90;;;;;;5107688;28;20495;-72
2022/09/30 02:19:44;;;;;;;8.23;6.00;;;9.00;99.90;;;;;;5133067;28;20123;-72
2022/09/30 02:22:23;;;;;;;9.52;6.30;;;9.10;99.90;;;;;;5132299;28;20054;-73
2022/09/30 02:24:59;;;;;;;10.98;5.70;;;8.90;99.90;;;;;;5133043;28;20043;-72
2022/09/30 02:27:39;;;;;;;8.50;6.13;;;9.10;99.90;;;;;;5133061;28;20040;-72
2022/09/30 02:30:08;;;;;;;7.97;6.10;;;8.90;99.90;;;;;;5114530;28;20055;-73
2022/09/30 02:32:46;;;;;;;7.10;5.60;;;8.80;99.90;;;;;;5131455;27;20047;-72
2022/09/30 02:35:46;;;;;;;7.53;5.60;;;8.80;99.90;;;;;;5148620;27;20063;-72
2022/09/30 02:38:19;;;;;;;8.45;6.10;;;8.80;99.90;;;;;;5090342;27;20059;-73
2022/09/30 02:40:54;;;;;;;8.60;5.45;;;8.70;99.90;;;;;;5136365;27;20035;-73
2022/09/30 02:43:20;;;;;;;9.02;6.00;;;8.60;99.90;;;;;;5136544;27;20041;-73
2022/09/30 02:46:24;;;;;;;8.30;5.57;;;8.60;99.90;;;;;;5136271;27;20046;-73
2022/09/30 02:48:58;;;;;;;8.38;5.80;;;8.60;99.90;;;;;;5117947;27;20479;-73
2022/09/30 02:51:37;;;;;;;9.85;5.82;;;8.50;99.90;;;;;;5135921;27;20047;-73
2022/09/30 02:54:18;;;;;;;8.05;5.88;;;8.60;99.90;;;;;;5136327;27;20078;-72
2022/09/30 02:56:50;;;;;;;6.63;5.38;;;8.50;99.90;;;;;;5117906;27;20051;-72
2022/09/30 02:59:16;;;;;;;7.55;5.80;;;8.50;99.90;;;;;;5136162;27;20119;-72
2022/09/30 03:01:42;;;;;;;7.60;5.90;;;8.50;99.90;;;;;;5135834;27;20039;-72
2022/09/30 03:04:11;;;;;;;7.50;5.60;;;8.50;99.90;;;;;;5136382;27;20058;-73
2022/09/30 03:06:38;;;;;;;8.48;6.07;;;8.50;99.90;;;;;;5133908;27;20068;-72
2022/09/30 03:09:04;;;;;;;8.13;5.72;;;8.50;99.90;;;;;;5136124;27;20134;-72
2022/09/30 03:11:30;;;;;;;8.95;5.78;;;8.50;99.90;;;;;;5117355;27;20043;-72
2022/09/30 03:14:14;;;;;;;9.48;6.20;;;8.50;99.90;;;;;;5135517;27;20039;-73
2022/09/30 03:16:43;;;;;;;7.80;5.93;;;8.50;99.90;;;;;;5135234;27;20193;-72
2022/09/30 03:19:23;;;;;;;9.27;5.70;;;8.40;99.90;;;;;;5135864;27;20550;-72
2022/09/30 03:21:55;;;;;;;8.05;6.00;;;8.40;99.90;;;;;;5135533;27;20041;-72
2022/09/30 03:24:31;;;;;;;7.15;5.65;;;8.30;99.90;;;;;;5135661;27;20054;-73
2022/09/30 03:27:06;;;;;;;7.75;5.80;;;8.40;99.90;;;;;;5135421;27;20445;-73
2022/09/30 03:29:53;;;;;;;6.38;5.45;;;8.20;99.90;;;;;;5117265;27;20043;-72
2022/09/30 03:32:30;;;;;;;7.75;5.95;;;8.20;99.90;;;;;;5135258;27;20043;-73
2022/09/30 03:35:03;;;;;;;6.38;5.68;;;8.20;99.90;;;;;;5135441;27;20071;-73
2022/09/30 03:37:45;;;;;;;6.70;5.88;;;8.10;99.90;;;;;;5135195;27;20047;-73
2022/09/30 03:40:23;;;;;;;7.32;6.10;;;8.10;99.90;;;;;;5135635;27;20104;-72
2022/09/30 03:43:27;;;;;;;6.50;5.78;;;8.70;99.90;;;;;;5151327;27;20437;-73
2022/09/30 03:46:22;;;;;;;6.80;5.63;;;8.10;99.90;;;;;;5110667;27;20070;-73
2022/09/30 03:48:51;;;;;;;7.00;6.10;;;8.10;99.90;;;;;;5126433;27;20044;-73
2022/09/30 03:51:17;;;;;;;7.78;6.10;;;8.10;99.90;;;;;;5134787;27;20051;-72
2022/09/30 03:53:45;;;;;;;7.22;5.82;;;8.00;99.90;;;;;;5151068;27;20126;-73
2022/09/30 03:56:12;;;;;;;7.93;6.20;;;8.00;99.90;;;;;;5133413;27;20047;-73
2022/09/30 03:58:43;;;;;;;8.10;6.15;;;9.10;99.90;;;;;;5116602;27;20455;-73
2022/09/30 04:01:20;;;;;;;7.18;5.90;;;7.90;99.90;;;;;;5134625;27;20124;-73
2022/09/30 04:03:52;;;;;;;6.60;5.90;;;7.90;99.90;;;;;;5134842;27;20107;-73
2022/09/30 04:06:20;;;;;;;7.60;6.22;;;7.90;99.90;;;;;;5132976;27;20460;-73
2022/09/30 04:08:46;;;;;;;8.35;6.35;;;7.90;99.90;;;;;;5134405;27;20035;-73
2022/09/30 04:11:12;;;;;;;6.40;5.75;;;7.90;99.90;;;;;;5134474;27;20084;-73
2022/09/30 04:13:38;;;;;;;9.32;6.45;;;7.90;99.90;;;;;;5115194;27;20031;-73
2022/09/30 04:16:06;;;;;;;8.27;6.60;;;7.90;99.90;;;;;;5134186;27;20058;-72
2022/09/30 04:18:34;;;;;;;7.30;6.32;;;7.90;99.90;;;;;;5134527;27;20054;-72
2022/09/30 04:21:05;;;;;;;8.90;6.50;;;8.00;99.90;;;;;;5134184;27;20071;-73
2022/09/30 04:23:34;;;;;;;7.10;6.40;;;7.90;99.90;;;;;;5121121;27;20440;-72
2022/09/30 04:26:01;;;;;;;8.32;7.07;;;7.90;99.90;;;;;;5152619;27;20478;-73
2022/09/30 04:28:26;;;;;;;8.52;6.85;;;7.90;99.90;;;;;;5155637;27;20034;-72
2022/09/30 04:30:52;;;;;;;8.38;7.43;;;7.90;99.90;;;;;;5170853;27;20231;-73
2022/09/30 04:33:17;;;;;;;8.77;7.25;;;7.90;99.90;;;;;;5155004;27;20031;-73
2022/09/30 04:35:43;;;;;;;9.07;7.30;;;7.80;99.90;;;;;;5136024;27;20059;-73
2022/09/30 04:38:08;;;;;;;8.10;7.30;;;7.80;99.90;;;;;;5136317;27;20042;-72
2022/09/30 04:40:38;;;;;;;9.93;7.93;;;7.80;99.90;;;;;;5154744;27;20039;-72
2022/09/30 04:43:06;;;;;;;9.57;8.20;;;7.80;99.90;;;;;;5136600;27;20454;-72
2022/09/30 04:45:32;;;;;;;9.32;7.85;;;7.90;99.90;;;;;;5170776;27;20078;-72
2022/09/30 04:47:58;;;;;;;8.95;7.88;;;7.80;99.90;;;;;;5154728;27;20336;-72
2022/09/30 04:50:23;;;;;;;8.77;7.40;;;7.80;99.90;;;;;;5154441;27;20117;-73
2022/09/30 04:52:49;;;;;;;9.27;8.02;;;7.80;99.90;;;;;;5153606;27;20547;-73
2022/09/30 04:55:15;;;;;;;9.32;7.75;;;7.80;99.90;;;;;;5152498;27;20097;-73
2022/09/30 04:57:43;;;;;;;9.50;7.78;;;7.80;99.90;;;;;;5135408;27;20042;-73
2022/09/30 05:00:09;;;;;;;11.48;8.00;;;8.50;99.90;;;;;;5154136;27;20074;-72
2022/09/30 05:02:35;;;;;;;11.40;7.70;;;7.80;99.90;;;;;;5154073;27;20426;-73
2022/09/30 05:05:02;;;;;;;11.68;7.95;;;7.80;99.90;;;;;;5170724;27;20034;-73
2022/09/30 05:07:30;;;;;;;9.50;7.90;;;8.20;99.90;;;;;;5152842;27;20429;-73
2022/09/30 05:09:56;;;;;;;9.75;8.27;;;7.90;99.90;;;;;;5152499;27;20053;-72
2022/09/30 05:12:22;;;;;;;11.25;8.27;;;7.90;99.90;;;;;;5151793;27;20042;-73
2022/09/30 05:14:48;;;;;;;9.90;8.07;;;8.60;99.90;;;;;;5134484;27;20054;-73
2022/09/30 05:17:13;;;;;;;11.40;8.57;;;7.80;99.90;;;;;;5153717;27;20035;-73
2022/09/30 05:19:39;;;;;;;10.90;8.90;;;7.80;99.90;;;;;;5135862;27;20159;-73
2022/09/30 05:22:04;;;;;;;9.77;8.70;;;7.80;99.90;;;;;;5153829;27;20130;-73
2022/09/30 05:24:30;;;;;;;10.75;8.20;;;7.80;99.90;;;;;;5154154;27;20050;-72
2022/09/30 05:26:56;;;;;;;10.25;8.23;;;8.10;99.90;;;;;;5153682;27;20483;-73
2022/09/30 05:29:22;;;;;;;11.98;9.30;;;7.70;99.90;;;;;;5153932;27;20035;-73
2022/09/30 05:31:48;;;;;;;10.18;8.55;;;7.80;99.90;;;;;;5135300;27;20495;-72
2022/09/30 05:34:15;;;;;;;12.52;8.35;;;7.80;99.90;;;;;;5154014;27;20031;-72
2022/09/30 05:36:42;;;;;;;10.38;8.50;;;7.80;99.90;;;;;;5134898;27;20440;-73
2022/09/30 05:39:09;;;;;;;14.02;8.73;;;7.90;99.90;;;;;;5153807;27;20039;-73
2022/09/30 05:41:35;;;;;;;12.75;8.75;;;7.90;99.90;;;;;;5142875;27;20082;-73
2022/09/30 05:44:01;;;;;;;11.18;8.70;;;9.00;99.90;;;;;;5133024;28;20066;-72
2022/09/30 05:46:27;;;;;;;11.73;8.55;;;8.60;99.90;;;;;;5132831;28;20043;-73
2022/09/30 05:48:53;;;;;;;12.23;8.38;;;7.90;99.90;;;;;;5133075;27;20035;-73
2022/09/30 05:51:19;;;;;;;16.02;8.35;;;8.90;99.90;;;;;;5120509;27;20047;-73
2022/09/30 05:53:45;;;;;;;11.50;8.73;;;8.00;99.90;;;;;;5135068;27;20038;-73
2022/09/30 05:56:11;;;;;;;12.70;8.38;;;8.00;99.90;;;;;;5153519;27;20368;-73
2022/09/30 05:58:39;;;;;;;10.95;8.02;;;8.00;99.90;;;;;;5135142;27;20188;-73
2022/09/30 06:01:10;;;;;;;10.57;8.40;;;8.00;99.90;;;;;;5153399;27;20426;-73
2022/09/30 06:03:37;;;;;;;10.90;8.27;;;8.00;99.90;;;;;;5153603;27;20042;-73
2022/09/30 06:06:04;;;;;;;11.93;8.35;;;8.00;99.90;;;;;;5153097;27;20047;-73
2022/09/30 06:08:30;;;;;;;10.07;8.23;;;7.90;99.90;;;;;;5153379;27;20038;-73
2022/09/30 06:10:59;;;;;;;10.55;8.68;;;7.90;99.90;;;;;;5134470;27;20047;-73
2022/09/30 06:13:26;;;;;;;9.55;7.82;;;8.00;99.90;;;;;;5155684;27;20054;-73
2022/09/30 06:15:57;;;;;;;9.43;7.68;;;8.00;99.90;;;;;;5156556;27;20042;-73
2022/09/30 06:18:23;;;;;;;12.27;8.70;;;8.50;99.90;;;;;;5138788;27;20046;-73
2022/09/30 06:20:48;;;;;;;11.77;8.55;;;8.10;99.90;;;;;;5146223;27;20041;-73
2022/09/30 06:23:14;;;;;;;11.95;8.18;;;9.00;99.90;;;;;;5117876;27;20035;-73
2022/09/30 06:25:41;;;;;;;11.65;7.80;;;8.10;99.90;;;;;;5135992;27;20126;-74
2022/09/30 06:28:07;;;;;;;10.68;7.68;;;8.10;99.90;;;;;;5118363;27;20050;-73
2022/09/30 06:30:33;;;;;;;11.98;7.47;;;8.20;99.90;;;;;;5117606;27;20043;-72
2022/09/30 06:33:00;;;;;;;10.55;7.70;;;8.50;99.90;;;;;;5136099;27;20035;-72
2022/09/30 06:35:27;;;;;;;11.13;7.60;;;8.30;99.90;;;;;;5117265;27;20142;-72
2022/09/30 06:37:53;;;;;;;9.90;7.32;;;8.40;99.90;;;;;;5135935;27;20051;-72
2022/09/30 06:40:23;;;;;;;8.95;6.90;;;8.40;99.90;;;;;;5135812;27;20103;-74
2022/09/30 06:42:49;;;;;;;8.38;6.13;;;8.60;99.90;;;;;;5135786;27;20050;-73
2022/09/30 06:45:17;;;;;;;9.48;6.55;;;8.70;99.90;;;;;;5136156;27;20436;-72
2022/09/30 06:47:45;;;;;;;8.88;6.38;;;8.90;99.90;;;;;;5135629;27;20074;-73
2022/09/30 06:50:11;;;;;;;9.45;6.22;;;9.00;99.90;;;;;;5136055;27;20047;-72
2022/09/30 06:52:36;;;;;;;8.25;5.97;;;9.10;99.90;;;;;;5117296;27;20074;-73
2022/09/30 06:55:02;;;;;;;6.70;5.43;;;9.30;99.90;;;;;;5136495;27;20100;-73
2022/09/30 06:57:28;;;;;;;7.63;5.55;;;9.30;99.90;;;;;;5117364;27;20054;-72
2022/09/30 06:59:54;;;;;;;8.65;5.13;;;9.40;99.90;;;;;;5135914;27;20039;-73
2022/09/30 07:02:20;;;;;;;7.28;5.88;;;9.40;99.90;;;;;;5135137;27;20031;-73
2022/09/30 07:04:46;;;;;;;8.65;5.63;;;9.70;99.90;;;;;;5117391;27;20050;-73
2022/09/30 07:07:12;;;;;;;8.13;5.50;;;9.40;99.90;;;;;;5135003;27;20088;-73
2022/09/30 07:09:38;;;;;;;6.90;5.40;;;10.00;99.90;;;;;;5117126;27;20118;-72
2022/09/30 07:12:05;;;;;;;5.93;4.70;;;10.10;99.90;;;;;;5116708;27;20449;-73
2022/09/30 07:14:31;;;;;;;7.35;5.00;;;10.40;99.90;;;;;;5117110;27;20392;-73
2022/09/30 07:16:57;;;;;;;8.13;4.75;;;10.30;99.90;;;;;;5116382;27;20436;-73
2022/09/30 07:19:23;;;;;;;6.78;4.55;;;9.70;99.90;;;;;;5117041;27;20039;-73
2022/09/30 07:21:49;;;;;;;8.63;4.97;;;9.70;99.90;;;;;;5135096;27;20130;-73
2022/09/30 07:24:15;;;;;;;8.90;4.80;;;9.70;99.90;;;;;;5135105;27;20110;-73
2022/09/30 07:26:42;;;;;;;6.38;4.60;;;9.80;99.90;;;;;;5134819;27;20068;-72
2022/09/30 07:29:08;;;;;;;5.85;4.38;;;9.80;99.90;;;;;;5135632;27;20064;-73
2022/09/30 07:31:33;;;;;;;7.10;5.00;;;10.00;99.90;;;;;;5099367;27;20039;-73
2022/09/30 07:33:59;;;;;;;7.15;4.53;;;10.00;99.90;;;;;;5116233;27;20047;-73
2022/09/30 07:36:28;;;;;;;7.20;4.50;;;10.90;99.90;;;;;;5134669;27;20047;-74
2022/09/30 07:38:55;;;;;;;7.38;4.25;;;13.20;99.90;;;;;;5116690;27;20122;-73
2022/09/30 07:41:27;;;;;;;6.03;3.80;;;13.80;99.90;;;;;;5134479;27;20083;-73
2022/09/30 07:43:56;;;;;;;6.13;4.10;;;13.70;99.90;;;;;;5133736;27;20387;-73
2022/09/30 07:46:28;;;;;;;4.90;3.42;;;13.60;99.90;;;;;;5115905;27;20043;-73
2022/09/30 07:48:58;;;;;;;5.70;4.25;;;13.50;99.90;;;;;;5116275;27;20399;-73
2022/09/30 07:51:31;;;;;;;5.78;3.95;;;15.60;99.90;;;;;;5134472;27;20103;-73
2022/09/30 07:54:17;;;;;;;4.55;3.50;;;17.50;99.90;;;;;;5134627;27;20129;-73
2022/09/30 07:56:44;;;;;;;;;;;17.80;99.90;;;;;;5116226;27;20127;-73
2022/09/30 07:59:11;;;;;;;6.75;3.75;;;19.30;99.90;;;;;;5150572;27;19977;-73
2022/09/30 08:01:37;;;;;;;5.35;3.42;;;21.00;99.90;;;;;;5134013;27;20043;-73
2022/09/30 08:04:06;;;;;;;5.43;3.33;;;22.10;99.90;;;;;;5134603;27;20403;-74
2022/09/30 08:06:39;;;;;;;6.10;3.50;;;20.50;99.90;;;;;;5134208;27;20047;-73
2022/09/30 08:09:05;;;;;;;5.03;3.45;;;19.10;99.90;;;;;;5134684;27;20039;-73
2022/09/30 08:11:35;;;;;;;6.53;3.45;;;18.00;99.90;;;;;;5133729;27;20075;-73
2022/09/30 08:14:01;;;;;;;8.05;3.78;;;17.20;99.90;;;;;;5134337;27;20055;-73
2022/09/30 08:16:27;;;;;;;6.13;4.00;;;16.70;99.90;;;;;;5133951;27;20178;-73
2022/09/30 08:18:57;;;;;;;7.95;3.90;;;16.10;99.90;;;;;;5115904;27;20047;-73
2022/09/30 08:21:23;;;;;;;4.95;3.45;;;15.70;99.90;;;;;;5133491;27;20055;-73
2022/09/30 08:23:49;;;;;;;6.03;3.80;;;16.60;99.90;;;;;;5123547;27;20440;-73
2022/09/30 08:26:15;;;;;;;6.25;3.70;;;19.20;99.90;;;;;;5154535;27;20133;-73
2022/09/30 08:28:41;;;;;;;4.50;3.35;;;21.50;99.90;;;;;;5154820;27;20369;-73
2022/09/30 08:31:13;;;;;;;5.60;3.33;;;23.70;99.90;;;;;;5154291;27;20042;-74
2022/09/30 08:33:39;;;;;;;4.45;3.30;;;25.50;99.30;;;;;;5148589;27;20033;-74
2022/09/30 08:36:07;;;;;;;5.45;3.17;;;27.00;96.80;;;;;;5114294;27;20134;-74
2022/09/30 08:38:33;;;;;;;5.32;3.10;;;28.20;95.70;;;;;;5134380;27;20526;-74
2022/09/30 08:41:32;;;;;;;3.83;2.80;;;29.40;93.90;;;;;;5133617;27;20395;-75
2022/09/30 08:44:03;;;;;;;4.57;2.72;;;30.40;92.50;;;;;;5133535;27;20047;-74
2022/09/30 08:46:53;;;;;;;5.60;3.10;;;31.10;90.40;;;;;;5114601;27;20047;-74
2022/09/30 08:49:28;;;;;;;6.18;3.38;;;31.70;90.30;;;;;;5133898;27;20399;-74
2022/09/30 08:51:55;;;;;;;5.32;3.58;;;32.50;87.60;;;;;;5114854;27;20115;-74
2022/09/30 08:54:25;;;;;;;4.38;3.40;;;32.60;83.40;;;;;;5133658;27;20043;-75
2022/09/30 08:56:51;;;;;;;9.43;3.55;;;32.60;82.70;;;;;;5132990;27;20046;-75
2022/09/30 08:59:19;;;;;;;6.60;3.83;;;32.80;81.40;;;;;;5144483;27;20462;-75
2022/09/30 09:01:52;;;;;;;5.32;3.55;;;33.20;81.10;;;;;;5153941;27;20421;-75
2022/09/30 09:04:18;;;;;;;6.07;3.30;;;33.30;79.90;;;;;;5154155;27;20042;-75
2022/09/30 09:06:56;;;;;;;4.53;3.25;;;33.70;78.10;;;;;;5135055;27;20043;-73
2022/09/30 09:09:28;;;;;;;6.63;3.42;;;33.90;76.40;;;;;;5151084;27;20499;-73
2022/09/30 09:12:44;;;;;;;4.38;3.22;;;34.10;76.50;;;;;;5150008;27;20046;-73
2022/09/30 09:15:39;;;;;;;5.05;3.38;;;34.20;76.90;;;;;;5127454;27;20053;-74
2022/09/30 09:18:28;;;;;;;4.57;3.30;;;34.70;74.90;;;;;;5132975;27;20046;-73
2022/09/30 09:21:01;;;;;;;4.13;3.13;;;34.90;74.90;;;;;;5130393;27;20047;-73
2022/09/30 09:23:31;;;;;;;4.50;3.25;;;35.30;75.10;;;;;;5133127;27;20047;-74
2022/09/30 09:25:58;;;;;;;4.40;3.25;;;35.70;74.20;;;;;;5133054;28;20062;-73
2022/09/30 09:28:36;;;;;;;4.03;3.17;;;35.80;73.10;;;;;;5114667;28;20123;-74
2022/09/30 09:31:03;;;;;;;4.20;3.40;;;35.90;73.20;;;;;;5132901;27;20039;-73
2022/09/30 09:33:34;;;;;;;4.97;3.47;;;35.90;71.40;;;;;;5132970;28;20039;-74
2022/09/30 09:36:25;;;;;;;5.50;3.42;;;35.90;71.80;;;;;;5113587;28;20062;-73
2022/09/30 09:39:17;;;;;;;4.18;3.15;;;35.70;71.60;;;;;;5133136;28;20046;-74
2022/09/30 09:42:16;;;;;;;5.68;3.13;;;35.40;71.10;;;;;;5114241;28;20039;-73
2022/09/30 09:45:01;;;;;;;4.93;3.20;;;35.40;71.20;;;;;;5114156;28;20130;-73
2022/09/30 09:47:27;;;;;;;4.50;3.40;;;35.40;70.60;;;;;;5135361;27;20035;-73
2022/09/30 09:49:55;;;;;;;4.93;3.08;;;35.50;70.00;;;;;;5137319;27;20066;-73
2022/09/30 09:52:43;;;;;;;4.32;3.42;;;35.60;70.30;;;;;;5137077;27;20412;-73
2022/09/30 09:55:10;;;;;;;4.03;3.10;;;36.10;69.70;;;;;;5137096;27;20039;-74
2022/09/30 09:57:36;;;;;;;4.38;3.10;;;36.60;68.80;;;;;;5136767;27;20178;-73
2022/09/30 10:01:10;;;;;;;4.25;3.10;;;36.70;68.30;;;;;;5136861;27;20086;-73
2022/09/30 10:03:26;;;;;;;3.97;2.90;;;37.20;67.30;;;;;;5152034;27;20070;-73
2022/09/30 10:06:01;;;;;;;3.67;2.70;;;37.60;65.80;;;;;;5135943;27;20050;-73
2022/09/30 10:08:30;;;;;;;4.05;2.45;;;37.40;65.70;;;;;;5136264;27;20114;-74
2022/09/30 10:10:59;;;;;;;3.30;2.40;;;36.90;65.30;;;;;;5136507;27;20104;-73
2022/09/30 10:13:45;;;;;;;3.42;2.47;;;37.00;65.10;;;;;;5136576;27;20161;-74
2022/09/30 10:16:34;;;;;;;4.05;2.30;;;36.60;64.70;;;;;;5135446;27;20123;-74
2022/09/30 10:19:01;;;;;;;3.60;2.20;;;36.80;65.30;;;;;;5136625;27;20046;-74
2022/09/30 10:21:28;;;;;;;2.88;2.10;;;37.20;64.40;;;;;;5136516;27;20047;-74
2022/09/30 10:23:53;;;;;;;2.70;1.90;;;37.20;64.20;;;;;;5136320;27;20064;-74
2022/09/30 10:26:21;;;;;;;3.53;2.00;;;37.00;63.80;;;;;;5134795;27;20043;-74
2022/09/30 10:29:03;;;;;;;3.55;1.98;;;37.30;62.50;;;;;;5136182;27;20147;-73
2022/09/30 10:31:42;;;;;;;2.95;2.00;;;37.30;63.10;;;;;;5134938;27;20047;-73
2022/09/30 10:34:31;;;;;;;2.85;1.90;;;37.80;63.10;;;;;;5135298;27;20243;-74
2022/09/30 10:37:00;;;;;;;3.15;2.20;;;37.70;63.50;;;;;;5136124;27;20086;-73
2022/09/30 10:39:38;;;;;;;3.88;2.50;;;37.60;62.70;;;;;;5117641;27;20093;-76
2022/09/30 10:42:23;;;;;;;3.80;2.60;;;36.90;61.90;;;;;;5135867;27;20043;-73
2022/09/30 10:45:15;;;;;;;4.35;2.58;;;37.00;62.20;;;;;;5117625;27;20035;-75
2022/09/30 10:47:47;;;;;;;4.72;2.88;;;37.10;62.40;;;;;;5119290;27;20087;-74
2022/09/30 10:50:19;;;;;;;3.70;3.00;;;37.30;61.80;;;;;;5137626;27;20456;-73
2022/09/30 10:53:17;;;;;;;3.83;3.08;;;37.40;61.00;;;;;;5156543;27;20039;-73
2022/09/30 10:55:44;;;;;;;4.20;2.90;;;37.30;61.70;;;;;;5139410;27;20541;-75
2022/09/30 10:58:19;;;;;;;5.22;2.90;;;37.60;60.80;;;;;;5155636;27;20042;-75
2022/09/30 11:00:48;;;;;;;4.20;2.83;;;37.60;60.10;;;;;;5137156;27;20089;-74
2022/09/30 11:03:19;;;;;;;4.47;2.50;;;37.70;60.30;;;;;;5155932;27;20031;-73
2022/09/30 11:05:47;;;;;;;4.28;2.45;;;37.70;59.40;;;;;;5156366;27;20432;-76
2022/09/30 11:08:27;;;;;;;4.28;2.03;;;37.30;59.10;;;;;;5156469;27;20042;-78
2022/09/30 11:10:53;;;;;;;3.40;1.88;;;35.30;60.30;;;;;;5156319;27;20102;-74
2022/09/30 11:13:30;;;;;;;3.00;1.95;;;34.30;62.20;;;;;;5155906;27;20035;-76
2022/09/30 11:16:31;;;;;;;3.72;1.65;;;33.30;62.90;;;;;;5138394;27;20082;-72
2022/09/30 11:19:24;;;;;;;3.88;1.63;;;33.50;64.10;;;;;;5141217;27;20043;-76
2022/09/30 11:22:27;;;;;;;2.78;1.40;;;32.70;62.00;;;;;;5144336;27;20454;-79
2022/09/30 11:24:56;;;;;;;2.65;1.45;;;32.10;60.50;;;;;;5138014;27;20133;-78
2022/09/30 11:27:59;;;;;;;1.88;1.40;;;32.90;61.20;;;;;;5120636;27;20461;-79
2022/09/30 11:30:41;;;;;;;2.47;1.30;;;33.00;60.90;;;;;;5137231;27;20053;-78
2022/09/30 11:33:44;;;;;;;3.83;1.38;;;31.60;59.80;;;;;;5156439;27;20113;-79
2022/09/30 11:36:45;;;;;;;3.20;1.50;;;30.30;62.30;;;;;;5137116;27;20145;-78
2022/09/30 11:39:21;;;;;;;2.50;1.40;;;28.60;64.00;;;;;;5137479;27;20039;-78
2022/09/30 11:42:12;;;;;;;2.58;1.50;;;28.50;63.80;;;;;;5155638;27;20130;-79
2022/09/30 11:44:42;;;;;;;1.73;1.30;;;28.70;63.50;;;;;;5139471;27;20043;-79
2022/09/30 11:47:40;;;;;;;1.95;1.30;;;28.90;63.70;;;;;;5134777;27;20043;-79
2022/09/30 11:50:33;;;;;;;1.70;1.30;;;28.90;63.00;;;;;;5135402;27;20489;-79
2022/09/30 11:53:17;;;;;;;1.83;1.20;;;29.00;63.00;;;;;;5116683;27;20126;-78
2022/09/30 11:56:01;;;;;;;1.95;1.30;;;29.10;62.30;;;;;;5116268;27;20051;-80
2022/09/30 11:58:35;;;;;;;1.85;1.17;;;28.70;63.50;;;;;;5117172;27;20042;-79
2022/09/30 12:01:28;;;;;;;1.48;1.00;;;29.10;63.40;;;;;;5121981;27;20479;-77
2022/09/30 12:04:05;;;;;;;1.75;1.10;;;29.40;62.90;;;;;;5143889;27;20045;-78
2022/09/30 12:06:33;;;;;;;2.13;1.20;;;29.90;62.80;;;;;;5138472;27;20085;-78
2022/09/30 12:09:08;;;;;;;2.70;1.60;;;29.90;62.80;;;;;;5119237;27;20035;-79
2022/09/30 12:11:37;;;;;;;;;;;29.70;62.20;;;;;;5132859;27;20038;-78
2022/09/30 12:14:15;;;;;;;2.60;1.20;;;29.00;62.40;;;;;;5155215;27;19925;-81
2022/09/30 12:16:42;;;;;;;1.17;1.00;;;27.80;64.00;;;;;;5169146;27;20042;-78
2022/09/30 12:19:19;;;;;;;1.80;1.27;;;26.80;65.00;;;;;;5154988;27;20486;-81
2022/09/30 12:21:49;;;;;;;1.40;1.20;;;25.90;66.10;;;;;;5148142;27;20034;-80
2022/09/30 12:24:39;;;;;;;1.15;0.98;;;24.90;67.60;;;;;;5133524;27;20031;-80
2022/09/30 12:27:16;;;;;;;1.70;1.30;;;24.40;68.90;;;;;;5153334;27;20118;-80
2022/09/30 12:32:58;;;;;;;2.60;1.33;;;23.90;69.80;;;;;;5151007;27;20559;-76
2022/09/30 12:35:57;;;;;;;2.45;1.35;;;23.50;70.70;;;;;;5112063;28;20066;-78
2022/09/30 12:38:48;;;;;;;2.60;1.50;;;23.00;71.70;;;;;;5095080;28;20045;-76
2022/09/30 12:41:35;;;;;;;2.60;1.33;;;22.60;73.20;;;;;;5112167;28;20452;-76
2022/09/30 12:44:39;;;;;;;1.92;1.30;;;22.10;74.20;;;;;;5112211;28;20395;-79
2022/09/30 12:47:44;;;;;;;4.20;1.55;;;21.90;75.40;;;;;;5130323;28;20044;-77
2022/09/30 12:50:14;;;;;;;2.05;1.30;;;22.50;75.10;;;;;;5111697;28;20085;-77
2022/09/30 12:52:40;;;;;;;4.43;1.60;;;22.70;75.00;;;;;;5094162;28;20423;-77
2022/09/30 12:55:29;;;;;;;2.30;1.20;;;23.00;74.80;;;;;;5111600;28;20044;-77
2022/09/30 12:58:00;;;;;;;2.20;1.30;;;22.80;74.40;;;;;;5111425;28;20058;-77
2022/09/30 13:00:33;;;;;;;1.83;1.10;;;22.40;74.70;;;;;;5091006;28;20046;-77
2022/09/30 13:03:05;;;;;;;2.40;1.25;;;22.00;75.40;;;;;;5108431;28;20047;-77
2022/09/30 13:05:30;;;;;;;2.45;1.30;;;21.60;76.40;;;;;;5074419;28;20048;-76
2022/09/30 13:08:05;;;;;;;1.75;1.30;;;21.20;77.60;;;;;;5109713;28;20047;-76
2022/09/30 13:10:33;;;;;;;2.58;1.30;;;21.10;78.40;;;;;;5109167;28;20438;-76
2022/09/30 13:13:24;;;;;;;2.28;1.30;;;21.00;78.70;;;;;;5109258;28;20040;-75
2022/09/30 13:16:02;;;;;;;1.98;1.30;;;21.20;78.20;;;;;;5109090;28;20066;-75
2022/09/30 13:18:28;;;;;;;2.20;1.33;;;21.20;77.40;;;;;;5108985;28;20469;-75
2022/09/30 13:21:03;;;;;;;1.83;1.40;;;21.40;77.30;;;;;;5109080;28;20092;-76
2022/09/30 13:23:35;;;;;;;2.25;1.15;;;21.40;76.80;;;;;;5091222;28;20083;-75
2022/09/30 13:26:02;;;;;;;2.08;1.45;;;21.30;77.30;;;;;;5108678;28;20388;-74
2022/09/30 13:28:37;;;;;;;2.38;1.40;;;21.20;77.90;;;;;;5109080;28;20047;-74